createdAt,value
2018-07-01T00:00:16.171Z,87.57
2018-07-01T00:01:15.953Z,85.86
2018-07-01T00:02:15.939Z,84.05
2018-07-01T00:03:15.935Z,86.61
2018-07-01T00:04:15.921Z,89.75
2018-07-01T00:05:15.912Z,88.9
2018-07-01T00:06:15.896Z,88.38
2018-07-01T00:07:15.886Z,90.47
2018-07-01T00:08:15.880Z,91.61
2018-07-01T00:09:15.866Z,93.23
2018-07-01T00:10:15.859Z,91.52
2018-07-01T00:11:15.850Z,90.37
2018-07-01T00:12:15.577Z,89.9
2018-07-01T00:13:15.830Z,89.33
2018-07-01T00:14:15.814Z,87.34
2018-07-01T00:15:15.820Z,86.76
2018-07-01T00:16:15.851Z,86.19
2018-07-01T00:17:15.784Z,85.53
2018-07-01T00:18:15.770Z,85.81
2018-07-01T00:19:15.764Z,84.67
2018-07-01T00:20:15.751Z,83.91
2018-07-01T00:21:15.748Z,83.62
2018-07-01T00:22:15.736Z,82.49
2018-07-01T00:23:15.722Z,83.06
2018-07-01T00:24:15.709Z,83.25
2018-07-01T00:25:15.696Z,83.44
2018-07-01T00:26:15.687Z,83.34
2018-07-01T00:27:15.678Z,82.87
2018-07-01T00:28:15.668Z,83.91
2018-07-01T00:29:15.658Z,79.16
2018-07-01T00:30:15.645Z,79.92
2018-07-01T00:31:15.631Z,79.35
2018-07-01T00:32:15.635Z,80.4
2018-07-01T00:33:15.616Z,81.35
2018-07-01T00:34:15.601Z,83.15
2018-07-01T00:35:15.588Z,83.91
2018-07-01T00:36:15.578Z,83.44
2018-07-01T00:37:15.566Z,83.82
2018-07-01T00:38:15.559Z,83.91
2018-07-01T00:39:15.545Z,83.82
2018-07-01T00:40:15.539Z,82.87
2018-07-01T00:41:15.523Z,83.06
2018-07-01T00:42:15.513Z,82.29
2018-07-01T00:43:15.502Z,83.91
2018-07-01T00:44:15.237Z,84.77
2018-07-01T00:45:15.487Z,86.1
2018-07-01T00:46:15.471Z,86.38
2018-07-01T00:47:15.465Z,87.24
2018-07-01T00:48:15.447Z,85.05
2018-07-01T00:49:15.184Z,84.95
2018-07-01T00:50:15.171Z,81.73
2018-07-01T00:51:15.420Z,80.58
2018-07-01T00:52:15.407Z,81.54
2018-07-01T00:53:15.395Z,83.53
2018-07-01T00:54:15.127Z,83.44
2018-07-01T00:55:15.115Z,83.82
2018-07-01T00:56:15.363Z,80.21
2018-07-01T00:57:15.349Z,83.62
2018-07-01T00:58:15.337Z,86.1
2018-07-01T00:59:15.330Z,84.29
2018-07-01T01:00:15.321Z,84.29
2018-07-01T01:01:15.310Z,82.77
2018-07-01T01:02:15.299Z,81.35
2018-07-01T01:03:15.285Z,81.63
2018-07-01T01:04:15.272Z,81.63
2018-07-01T01:05:15.264Z,81.44
2018-07-01T01:06:14.994Z,80.58
2018-07-01T01:07:15.242Z,79.83
2018-07-01T01:08:15.237Z,83.44
2018-07-01T01:09:15.220Z,87.43
2018-07-01T01:10:15.206Z,90.37
2018-07-01T01:11:14.940Z,91.94
2018-07-01T01:12:15.185Z,92.99
2018-07-01T01:13:15.174Z,92.71
2018-07-01T01:14:15.162Z,90.9
2018-07-01T01:15:14.896Z,87.29
2018-07-01T01:16:15.145Z,83.78
2018-07-01T01:17:15.128Z,82.73
2018-07-01T01:18:15.120Z,80.83
2018-07-01T01:19:15.108Z,79.22
2018-07-01T01:20:15.103Z,79.79
2018-07-01T01:21:15.091Z,82.82
2018-07-01T01:22:15.075Z,83.59
2018-07-01T01:23:14.807Z,81.4
2018-07-01T01:24:15.054Z,77.98
2018-07-01T01:25:15.042Z,75.99
2018-07-01T01:26:14.773Z,77.41
2018-07-01T01:27:15.018Z,76.46
2018-07-01T01:28:15.011Z,74.37
2018-07-01T01:29:14.739Z,72.95
2018-07-01T01:30:14.986Z,71.52
2018-07-01T01:31:14.974Z,71.48
2018-07-01T01:32:14.965Z,69.62
2018-07-01T01:33:14.697Z,69.15
2018-07-01T01:34:14.944Z,68.58
2018-07-01T01:35:14.931Z,69.15
2018-07-01T01:36:14.917Z,68.48
2018-07-01T01:37:14.914Z,69.43
2018-07-01T01:38:14.895Z,69.02
2018-07-01T01:39:14.884Z,67.97
2018-07-01T01:40:14.879Z,67.5
2018-07-01T01:41:14.865Z,66.96
2018-07-01T01:42:14.870Z,66.55
2018-07-01T01:43:14.841Z,67.88
2018-07-01T01:44:14.574Z,68.48
2018-07-01T01:45:14.815Z,67.79
2018-07-01T01:46:14.808Z,67.31
2018-07-01T01:47:14.536Z,66.93
2018-07-01T01:48:14.790Z,66.83
2018-07-01T01:49:14.791Z,67.21
2018-07-01T01:50:14.500Z,69.87
2018-07-01T01:51:14.747Z,73
2018-07-01T01:52:14.736Z,75
2018-07-01T01:53:14.723Z,76.23
2018-07-01T01:54:14.454Z,76.8
2018-07-01T01:55:14.699Z,77.47
2018-07-01T01:56:14.694Z,76.23
2018-07-01T01:57:14.419Z,76.14
2018-07-01T01:58:14.663Z,77.28
2018-07-01T01:59:14.654Z,77.47
2018-07-01T02:00:14.642Z,75.76
2018-07-01T02:01:14.373Z,74.33
2018-07-01T02:02:14.363Z,73.1
2018-07-01T02:03:14.605Z,72.63
2018-07-01T02:04:14.595Z,72.15
2018-07-01T02:05:14.582Z,71.67
2018-07-01T02:06:14.572Z,70.73
2018-07-01T02:07:14.562Z,69.78
2018-07-01T02:08:14.549Z,69.11
2018-07-01T02:09:14.540Z,69.78
2018-07-01T02:10:14.527Z,69.78
2018-07-01T02:11:14.512Z,70.25
2018-07-01T02:12:14.502Z,71.01
2018-07-01T02:13:14.487Z,72.34
2018-07-01T02:14:14.221Z,73
2018-07-01T02:15:14.465Z,74.15
2018-07-01T02:16:14.457Z,73
2018-07-01T02:17:14.445Z,72.53
2018-07-01T02:18:14.431Z,73.1
2018-07-01T02:19:14.419Z,69.59
2018-07-01T02:20:14.407Z,67.31
2018-07-01T02:21:14.395Z,65.6
2018-07-01T02:22:14.383Z,62.56
2018-07-01T02:23:14.371Z,62.56
2018-07-01T02:24:14.412Z,64.84
2018-07-01T02:25:14.353Z,67.21
2018-07-01T02:26:14.078Z,68.64
2018-07-01T02:27:14.325Z,66.74
2018-07-01T02:28:14.056Z,62.15
2018-07-01T02:29:14.303Z,61.58
2018-07-01T02:30:14.292Z,61.9
2018-07-01T02:31:14.285Z,60.53
2018-07-01T02:32:14.267Z,61.2
2018-07-01T02:33:14.262Z,61.3
2018-07-01T02:34:14.244Z,62.05
2018-07-01T02:35:14.351Z,63.1
2018-07-01T02:36:14.220Z,62.91
2018-07-01T02:37:14.211Z,63.48
2018-07-01T02:38:13.936Z,65.37
2018-07-01T02:39:14.183Z,67.37
2018-07-01T02:40:14.172Z,66.61
2018-07-01T02:41:14.196Z,67.65
2018-07-01T02:42:13.892Z,67.18
2018-07-01T02:43:14.137Z,67.94
2018-07-01T02:44:14.122Z,66.52
2018-07-01T02:45:14.110Z,66.71
2018-07-01T02:46:14.102Z,67.27
2018-07-01T02:47:14.088Z,68.41
2018-07-01T02:48:13.816Z,69.17
2018-07-01T02:49:13.807Z,68.6
2018-07-01T02:50:14.051Z,69.08
2018-07-01T02:51:14.039Z,69.08
2018-07-01T02:52:13.771Z,69.55
2018-07-01T02:53:14.017Z,69.36
2018-07-01T02:54:13.746Z,69.55
2018-07-01T02:55:13.994Z,68.79
2018-07-01T02:56:13.985Z,68.79
2018-07-01T02:57:13.967Z,69.17
2018-07-01T02:58:13.967Z,69.36
2018-07-01T02:59:13.942Z,68.89
2018-07-01T03:00:13.927Z,68.89
2018-07-01T03:01:13.922Z,69.84
2018-07-01T03:02:13.653Z,70.21
2018-07-01T03:03:13.893Z,70.5
2018-07-01T03:04:13.922Z,70.98
2018-07-01T03:05:13.871Z,71.26
2018-07-01T03:06:13.857Z,72.11
2018-07-01T03:07:13.845Z,72.3
2018-07-01T03:08:13.834Z,72.02
2018-07-01T03:09:13.821Z,70.59
2018-07-01T03:10:13.813Z,70.98
2018-07-01T03:11:13.796Z,71.17
2018-07-01T03:12:13.789Z,70.21
2018-07-01T03:13:13.777Z,70.31
2018-07-01T03:14:13.765Z,70.5
2018-07-01T03:15:13.750Z,70.78
2018-07-01T03:16:13.739Z,71.55
2018-07-01T03:17:13.723Z,71.26
2018-07-01T03:18:13.724Z,72.02
2018-07-01T03:19:13.703Z,72.3
2018-07-01T03:20:13.433Z,72.78
2018-07-01T03:21:13.676Z,70.21
2018-07-01T03:22:13.666Z,67.85
2018-07-01T03:23:13.653Z,66.42
2018-07-01T03:24:13.649Z,66.89
2018-07-01T03:25:13.370Z,68.32
2018-07-01T03:26:13.619Z,69.08
2018-07-01T03:27:13.605Z,69.36
2018-07-01T03:28:13.590Z,70.31
2018-07-01T03:29:13.581Z,69.36
2018-07-01T03:30:13.566Z,65.85
2018-07-01T03:31:13.299Z,65
2018-07-01T03:32:13.549Z,63.29
2018-07-01T03:33:13.532Z,61.01
2018-07-01T03:34:13.261Z,60.53
2018-07-01T03:35:13.507Z,58.54
2018-07-01T03:36:13.492Z,56.46
2018-07-01T03:37:13.228Z,57.5
2018-07-01T03:38:13.471Z,60.73
2018-07-01T03:39:13.459Z,63.01
2018-07-01T03:40:13.449Z,65.66
2018-07-01T03:41:13.178Z,66.89
2018-07-01T03:42:13.421Z,68.51
2018-07-01T03:43:13.408Z,68.79
2018-07-01T03:44:13.398Z,67.27
2018-07-01T03:45:13.386Z,67.37
2018-07-01T03:46:13.376Z,67.08
2018-07-01T03:47:13.105Z,66.89
2018-07-01T03:48:13.092Z,67.08
2018-07-01T03:49:13.338Z,68.6
2018-07-01T03:50:13.125Z,68.98
2018-07-01T03:51:13.316Z,70.21
2018-07-01T03:52:13.302Z,70.78
2018-07-01T03:53:13.293Z,71.26
2018-07-01T03:54:13.020Z,71.39
2018-07-01T03:55:13.267Z,71.86
2018-07-01T03:56:12.999Z,72.81
2018-07-01T03:57:13.242Z,72.88
2018-07-01T03:58:13.237Z,71.36
2018-07-01T03:59:12.961Z,71.48
2018-07-01T04:00:13.220Z,72.59
2018-07-01T04:01:13.196Z,73.57
2018-07-01T04:02:12.926Z,73.86
2018-07-01T04:03:13.178Z,74.81
2018-07-01T04:04:12.901Z,75.67
2018-07-01T04:05:13.149Z,73.1
2018-07-01T04:06:13.145Z,72.25
2018-07-01T04:07:13.122Z,74.05
2018-07-01T04:08:13.115Z,74.33
2018-07-01T04:09:13.096Z,75.09
2018-07-01T04:10:12.839Z,68.83
2018-07-01T04:11:13.077Z,66.46
2018-07-01T04:12:13.061Z,65.31
2018-07-01T04:13:13.050Z,63.04
2018-07-01T04:14:13.040Z,61.99
2018-07-01T04:15:13.025Z,61.71
2018-07-01T04:16:13.013Z,61.23
2018-07-01T04:17:13.002Z,60
2018-07-01T04:18:12.994Z,59.05
2018-07-01T04:19:12.980Z,60.47
2018-07-01T04:20:12.966Z,62.56
2018-07-01T04:21:12.959Z,62.56
2018-07-01T04:22:12.945Z,61.23
2018-07-01T04:23:12.931Z,58.2
2018-07-01T04:24:12.918Z,57.56
2018-07-01T04:25:12.910Z,55.25
2018-07-01T04:26:12.897Z,54.11
2018-07-01T04:27:12.627Z,54.3
2018-07-01T04:28:12.874Z,54.21
2018-07-01T04:29:12.861Z,54.61
2018-07-01T04:30:12.852Z,53.47
2018-07-01T04:31:13.088Z,53.47
2018-07-01T04:32:12.829Z,54.33
2018-07-01T04:33:12.818Z,54.43
2018-07-01T04:34:12.802Z,54.8
2018-07-01T04:35:12.789Z,56.32
2018-07-01T04:36:12.782Z,56.7
2018-07-01T04:37:12.767Z,55.09
2018-07-01T04:38:12.755Z,55.09
2018-07-01T04:39:12.488Z,56.42
2018-07-01T04:40:12.731Z,56.42
2018-07-01T04:41:12.724Z,56.23
2018-07-01T04:42:12.711Z,56.8
2018-07-01T04:43:12.441Z,56.61
2018-07-01T04:44:12.432Z,57.65
2018-07-01T04:45:12.675Z,58.41
2018-07-01T04:46:12.667Z,59.68
2018-07-01T04:47:12.656Z,57.94
2018-07-01T04:48:12.641Z,57.46
2018-07-01T04:49:12.701Z,58.16
2018-07-01T04:50:12.362Z,59.87
2018-07-01T04:51:12.611Z,62.62
2018-07-01T04:52:12.600Z,70.13
2018-07-01T04:53:12.589Z,76.78
2018-07-01T04:54:12.580Z,78.21
2018-07-01T04:55:12.789Z,78.5
2018-07-01T04:56:12.551Z,81.06
2018-07-01T04:57:12.546Z,79.73
2018-07-01T04:58:12.529Z,80.21
2018-07-01T04:59:12.526Z,78.3
2018-07-01T05:00:12.512Z,79.83
2018-07-01T05:01:12.499Z,80.87
2018-07-01T05:02:12.264Z,81.38
2018-07-01T05:03:12.475Z,82.53
2018-07-01T05:04:12.464Z,81.96
2018-07-01T05:05:12.460Z,82.53
2018-07-01T05:06:12.445Z,83.48
2018-07-01T05:07:12.476Z,82.81
2018-07-01T05:08:12.424Z,83.95
2018-07-01T05:09:12.422Z,86.71
2018-07-01T05:10:12.145Z,90.42
2018-07-01T05:11:12.401Z,92.13
2018-07-01T05:12:12.382Z,92.89
2018-07-01T05:13:12.373Z,91.47
2018-07-01T05:14:12.362Z,89.66
2018-07-01T05:15:12.093Z,88.23
2018-07-01T05:16:12.337Z,89.28
2018-07-01T05:17:12.504Z,89.61
2018-07-01T05:18:12.319Z,89.04
2018-07-01T05:19:12.309Z,86.66
2018-07-01T05:20:12.046Z,88.37
2018-07-01T05:21:12.291Z,85.9
2018-07-01T05:22:12.277Z,82.67
2018-07-01T05:23:12.265Z,81.62
2018-07-01T05:24:12.263Z,84.95
2018-07-01T05:25:12.244Z,86.76
2018-07-01T05:26:12.234Z,86.94
2018-07-01T05:27:12.226Z,87.8
2018-07-01T05:28:12.218Z,87.99
2018-07-01T05:29:11.946Z,87.9
2018-07-01T05:30:12.196Z,86.47
2018-07-01T05:31:12.182Z,87.85
2018-07-01T05:32:12.179Z,90.32
2018-07-01T05:33:12.165Z,99.27
2018-07-01T05:34:12.153Z,97.46
2018-07-01T05:35:12.210Z,95.84
2018-07-01T05:36:12.133Z,94.79
2018-07-01T05:37:11.870Z,96.51
2018-07-01T05:38:12.117Z,96.03
2018-07-01T05:39:12.104Z,95.94
2018-07-01T05:40:12.100Z,95.27
2018-07-01T05:41:12.090Z,97.03
2018-07-01T05:42:12.076Z,97.41
2018-07-01T05:43:12.069Z,97.41
2018-07-01T05:44:12.057Z,98.36
2018-07-01T05:45:12.053Z,97.7
2018-07-01T05:46:12.038Z,99.99
2018-07-01T05:47:12.027Z,99.99
2018-07-01T05:48:12.017Z,99.99
2018-07-01T05:49:12.005Z,99.99
2018-07-01T05:50:12.003Z,99.99
2018-07-01T05:51:11.995Z,99.99
2018-07-01T05:52:11.985Z,99.99
2018-07-01T05:53:11.970Z,99.99
2018-07-01T05:54:11.705Z,99.99
2018-07-01T05:55:11.949Z,99.99
2018-07-01T05:56:11.687Z,99.99
2018-07-01T05:57:12.097Z,99.99
2018-07-01T05:58:11.923Z,99.99
2018-07-01T05:59:11.914Z,99.99
2018-07-01T06:00:11.909Z,99.99
2018-07-01T06:01:11.908Z,99.99
2018-07-01T06:02:11.631Z,99.99
2018-07-01T06:03:11.624Z,99.99
2018-07-01T06:04:11.919Z,99.99
2018-07-01T06:05:11.864Z,99.99
2018-07-01T06:06:11.852Z,99.99
2018-07-01T06:07:11.843Z,99.99
2018-07-01T06:08:11.840Z,99.99
2018-07-01T06:09:11.836Z,99.99
2018-07-01T06:10:11.819Z,99.99
2018-07-01T06:11:11.809Z,99.99
2018-07-01T06:12:11.801Z,99.99
2018-07-01T06:13:11.795Z,99.99
2018-07-01T06:14:11.890Z,99.99
2018-07-01T06:15:11.781Z,99.99
2018-07-01T06:16:11.771Z,99.99
2018-07-01T06:17:11.762Z,99.99
2018-07-01T06:18:11.754Z,99.99
2018-07-01T06:19:11.747Z,99.99
2018-07-01T06:20:11.737Z,99.99
2018-07-01T06:21:11.734Z,99.99
2018-07-01T06:22:11.725Z,99.99
2018-07-01T06:23:11.458Z,99.99
2018-07-01T06:24:11.769Z,99.99
2018-07-01T06:25:11.444Z,99.99
2018-07-01T06:26:11.438Z,99.99
2018-07-01T06:27:11.685Z,99.99
2018-07-01T06:28:11.683Z,99.99
2018-07-01T06:29:11.671Z,99.99
2018-07-01T06:30:11.667Z,99.99
2018-07-01T06:31:11.659Z,99.99
2018-07-01T06:32:11.652Z,99.99
2018-07-01T06:33:11.647Z,99.99
2018-07-01T06:34:11.639Z,99.99
2018-07-01T06:35:11.630Z,99.99
2018-07-01T06:36:11.627Z,99.99
2018-07-01T06:37:11.361Z,99.99
2018-07-01T06:38:11.353Z,99.99
2018-07-01T06:39:11.349Z,99.99
2018-07-01T06:40:11.602Z,99.99
2018-07-01T06:41:11.595Z,99.99
2018-07-01T06:42:11.582Z,99.99
2018-07-01T06:43:11.325Z,99.99
2018-07-01T06:44:11.574Z,99.99
2018-07-01T06:45:11.573Z,90.78
2018-07-01T06:46:11.306Z,77.86
2018-07-01T06:47:11.557Z,67.6
2018-07-01T06:48:11.552Z,61.94
2018-07-01T06:49:11.549Z,55.12
2018-07-01T06:50:11.549Z,51.43
2018-07-01T06:51:11.544Z,45.7
2018-07-01T06:52:11.535Z,43.15
2018-07-01T06:53:11.530Z,42.49
2018-07-01T06:54:11.526Z,39.06
2018-07-01T06:55:11.266Z,36.29
2018-07-01T06:56:11.524Z,35.72
2018-07-01T06:57:11.259Z,36.88
2018-07-01T06:58:11.514Z,38.23
2018-07-01T06:59:11.513Z,38.29
2018-07-01T07:00:11.521Z,37.62
2018-07-01T07:01:11.512Z,34.64
2018-07-01T07:02:11.505Z,34.47
2018-07-01T07:03:11.505Z,32.26
2018-07-01T07:04:11.508Z,32.38
2018-07-01T07:05:11.501Z,30.27
2018-07-01T07:06:11.545Z,29.41
2018-07-01T07:07:11.504Z,28.56
2018-07-01T07:08:11.619Z,29.24
2018-07-01T07:09:11.499Z,26.73
2018-07-01T07:10:11.501Z,26.05
2018-07-01T07:11:11.500Z,26.63
2018-07-01T07:12:11.503Z,27.03
2018-07-01T07:13:11.503Z,27.43
2018-07-01T07:14:11.501Z,28.2
2018-07-01T07:15:11.504Z,29.05
2018-07-01T07:16:11.579Z,29.03
2018-07-01T07:17:11.249Z,29.15
2018-07-01T07:18:11.506Z,28.38
2018-07-01T07:19:11.505Z,29.05
2018-07-01T07:20:11.515Z,28.94
2018-07-01T07:21:11.515Z,27.19
2018-07-01T07:22:11.511Z,27.28
2018-07-01T07:23:11.255Z,26.79
2018-07-01T07:24:11.514Z,27
2018-07-01T07:25:11.515Z,27
2018-07-01T07:26:11.518Z,27.7
2018-07-01T07:27:11.516Z,26.84
2018-07-01T07:28:11.521Z,25.87
2018-07-01T07:29:11.521Z,25.88
2018-07-01T07:30:11.267Z,26.65
2018-07-01T07:31:11.526Z,26.28
2018-07-01T07:32:11.529Z,25.7
2018-07-01T07:33:11.529Z,26.37
2018-07-01T07:34:11.535Z,26.46
2018-07-01T07:35:11.531Z,26.73
2018-07-01T07:36:11.542Z,28.85
2018-07-01T07:37:11.281Z,28.75
2018-07-01T07:38:11.541Z,28.36
2018-07-01T07:39:11.546Z,29.7
2018-07-01T07:40:11.548Z,30.25
2018-07-01T07:41:11.546Z,30.82
2018-07-01T07:42:11.294Z,31.2
2018-07-01T07:43:11.553Z,30.44
2018-07-01T07:44:11.556Z,30.91
2018-07-01T07:45:11.608Z,30.73
2018-07-01T07:46:11.299Z,30.94
2018-07-01T07:47:11.561Z,31.43
2018-07-01T07:48:11.561Z,29.5
2018-07-01T07:49:11.305Z,28.92
2018-07-01T07:50:11.567Z,28.15
2018-07-01T07:51:11.566Z,28.45
2018-07-01T07:52:11.631Z,27.67
2018-07-01T07:53:11.569Z,27.58
2018-07-01T07:54:11.574Z,28.15
2018-07-01T07:55:11.579Z,28.73
2018-07-01T07:56:11.321Z,29.02
2018-07-01T07:57:11.580Z,28.07
2018-07-01T07:58:11.325Z,29.33
2018-07-01T07:59:11.588Z,28.18
2018-07-01T08:00:11.331Z,27
2018-07-01T08:01:11.590Z,27.46
2018-07-01T08:02:11.593Z,29.57
2018-07-01T08:03:11.598Z,29.09
2018-07-01T08:04:11.599Z,27.76
2018-07-01T08:05:11.610Z,28.54
2018-07-01T08:06:11.600Z,27.97
2018-07-01T08:07:11.601Z,27.68
2018-07-01T08:08:11.612Z,27.97
2018-07-01T08:09:11.350Z,27.87
2018-07-01T08:10:11.608Z,29.03
2018-07-01T08:11:11.608Z,28.85
2018-07-01T08:12:11.613Z,27.39
2018-07-01T08:13:11.408Z,27.39
2018-07-01T08:14:11.359Z,27.11
2018-07-01T08:15:11.615Z,26.15
2018-07-01T08:16:11.619Z,26.45
2018-07-01T08:17:11.617Z,25.85
2018-07-01T08:18:11.614Z,27.7
2018-07-01T08:19:11.620Z,28.65
2018-07-01T08:20:11.618Z,29.52
2018-07-01T08:21:11.361Z,28.25
2018-07-01T08:22:11.618Z,27.47
2018-07-01T08:23:11.623Z,29.09
2018-07-01T08:24:11.365Z,30.24
2018-07-01T08:25:11.618Z,32.23
2018-07-01T08:26:11.621Z,33.18
2018-07-01T08:27:11.618Z,35.77
2018-07-01T08:28:11.617Z,35.85
2018-07-01T08:29:11.362Z,34.67
2018-07-01T08:30:11.361Z,34.37
2018-07-01T08:31:11.616Z,37.04
2018-07-01T08:32:11.615Z,39.91
2018-07-01T08:33:11.359Z,38.76
2018-07-01T08:34:11.613Z,41.14
2018-07-01T08:35:11.616Z,40.56
2018-07-01T08:36:11.609Z,39.79
2018-07-01T08:37:11.355Z,38.84
2018-07-01T08:38:11.609Z,38.93
2018-07-01T08:39:11.607Z,39.41
2018-07-01T08:40:11.724Z,38.16
2018-07-01T08:41:11.652Z,39.87
2018-07-01T08:42:11.347Z,40.06
2018-07-01T08:43:11.601Z,38.91
2018-07-01T08:44:11.600Z,38.34
2018-07-01T08:45:11.600Z,38.04
2018-07-01T08:46:11.635Z,38.53
2018-07-01T08:47:11.597Z,39.66
2018-07-01T08:48:11.595Z,39.76
2018-07-01T08:49:11.594Z,39.76
2018-07-01T08:50:11.586Z,40.14
2018-07-01T08:51:11.328Z,39.76
2018-07-01T08:52:11.583Z,39.73
2018-07-01T08:53:11.581Z,40.6
2018-07-01T08:54:11.322Z,40.41
2018-07-01T08:55:11.580Z,41.37
2018-07-01T08:56:11.577Z,40.6
2018-07-01T08:57:11.572Z,40.41
2018-07-01T08:58:11.568Z,40.89
2018-07-01T08:59:11.310Z,41.37
2018-07-01T09:00:11.564Z,40.7
2018-07-01T09:01:11.561Z,41.66
2018-07-01T09:02:11.302Z,41.37
2018-07-01T09:03:11.300Z,40.99
2018-07-01T09:04:11.552Z,42.35
2018-07-01T09:05:11.551Z,40.05
2018-07-01T09:06:11.548Z,39.37
2018-07-01T09:07:11.551Z,40.81
2018-07-01T09:08:11.546Z,41.77
2018-07-01T09:09:11.539Z,39.85
2018-07-01T09:10:11.574Z,40.81
2018-07-01T09:11:11.540Z,41.39
2018-07-01T09:12:11.276Z,41.67
2018-07-01T09:13:11.530Z,42.93
2018-07-01T09:14:11.527Z,41.77
2018-07-01T09:15:11.527Z,41.67
2018-07-01T09:16:11.520Z,42.44
2018-07-01T09:17:11.570Z,40.72
2018-07-01T09:18:11.516Z,40.14
2018-07-01T09:19:11.509Z,40.33
2018-07-01T09:20:11.510Z,39.47
2018-07-01T09:21:11.252Z,41.27
2018-07-01T09:22:11.507Z,42.73
2018-07-01T09:23:11.503Z,42.16
2018-07-01T09:24:11.497Z,40.05
2018-07-01T09:25:11.496Z,40.91
2018-07-01T09:26:11.497Z,40.91
2018-07-01T09:27:11.494Z,41.67
2018-07-01T09:28:11.494Z,43.62
2018-07-01T09:29:11.485Z,41.99
2018-07-01T09:30:11.490Z,41.02
2018-07-01T09:31:11.481Z,40.28
2018-07-01T09:32:11.479Z,38.14
2018-07-01T09:33:11.475Z,38.07
2018-07-01T09:34:11.480Z,36.82
2018-07-01T09:35:11.471Z,36.99
2018-07-01T09:36:11.466Z,39.39
2018-07-01T09:37:11.464Z,39.97
2018-07-01T09:38:11.464Z,41.02
2018-07-01T09:39:11.458Z,38.91
2018-07-01T09:40:11.200Z,36.6
2018-07-01T09:41:11.456Z,35.74
2018-07-01T09:42:11.196Z,37.37
2018-07-01T09:43:11.192Z,37.95
2018-07-01T09:44:11.445Z,38.89
2018-07-01T09:45:11.450Z,42.54
2018-07-01T09:46:11.447Z,41.5
2018-07-01T09:47:11.436Z,40.06
2018-07-01T09:48:11.433Z,38.53
2018-07-01T09:49:11.432Z,38.53
2018-07-01T09:50:11.436Z,37.27
2018-07-01T09:51:11.169Z,37.57
2018-07-01T09:52:11.420Z,38.72
2018-07-01T09:53:11.165Z,37.37
2018-07-01T09:54:11.420Z,38.04
2018-07-01T09:55:11.416Z,38.91
2018-07-01T09:56:11.420Z,37.49
2018-07-01T09:57:11.416Z,37.76
2018-07-01T09:58:11.411Z,37.95
2018-07-01T09:59:11.145Z,36.7
2018-07-01T10:00:11.416Z,37.95
2018-07-01T10:01:11.487Z,38.14
2018-07-01T10:02:11.398Z,38.14
2018-07-01T10:03:11.398Z,38.81
2018-07-01T10:04:11.393Z,36.33
2018-07-01T10:05:11.388Z,35.83
2018-07-01T10:06:11.385Z,36.8
2018-07-01T10:07:11.128Z,35.83
2018-07-01T10:08:11.381Z,35.36
2018-07-01T10:09:11.378Z,36.7
2018-07-01T10:10:11.117Z,34.88
2018-07-01T10:11:11.113Z,36.41
2018-07-01T10:12:11.372Z,34.89
2018-07-01T10:13:11.364Z,34.99
2018-07-01T10:14:11.105Z,34.99
2018-07-01T10:15:11.361Z,33.54
2018-07-01T10:16:11.106Z,33.45
2018-07-01T10:17:11.355Z,32.49
2018-07-01T10:18:11.351Z,35.47
2018-07-01T10:19:11.094Z,35.18
2018-07-01T10:20:11.357Z,34.61
2018-07-01T10:21:11.345Z,31.82
2018-07-01T10:22:11.343Z,31.15
2018-07-01T10:23:11.337Z,32.76
2018-07-01T10:24:11.337Z,32.86
2018-07-01T10:25:11.333Z,33.05
2018-07-01T10:26:11.075Z,32.28
2018-07-01T10:27:11.333Z,31.32
2018-07-01T10:28:11.325Z,33.15
2018-07-01T10:29:11.323Z,32.47
2018-07-01T10:30:11.063Z,31.32
2018-07-01T10:31:11.319Z,31.8
2018-07-01T10:32:11.057Z,34.49
2018-07-01T10:33:11.314Z,33.34
2018-07-01T10:34:11.330Z,33.05
2018-07-01T10:35:11.307Z,30.17
2018-07-01T10:36:11.304Z,31.03
2018-07-01T10:37:11.301Z,32.86
2018-07-01T10:38:11.298Z,30.74
2018-07-01T10:39:11.297Z,31.51
2018-07-01T10:40:11.373Z,33.34
2018-07-01T10:41:11.290Z,32.28
2018-07-01T10:42:11.286Z,33.44
2018-07-01T10:43:11.282Z,33.24
2018-07-01T10:44:11.283Z,33.34
2018-07-01T10:45:11.280Z,30.93
2018-07-01T10:46:11.295Z,32.09
2018-07-01T10:47:11.272Z,32.95
2018-07-01T10:48:11.269Z,32.49
2018-07-01T10:49:11.266Z,31.13
2018-07-01T10:50:11.264Z,30.08
2018-07-01T10:51:11.005Z,31.41
2018-07-01T10:52:11.264Z,29.8
2018-07-01T10:53:11.257Z,31.51
2018-07-01T10:54:11.253Z,32.95
2018-07-01T10:55:11.249Z,35.08
2018-07-01T10:56:11.252Z,35.08
2018-07-01T10:57:11.247Z,32.97
2018-07-01T10:58:10.987Z,31.53
2018-07-01T10:59:11.243Z,31.05
2018-07-01T11:00:10.983Z,32.3
2018-07-01T11:01:11.247Z,31.92
2018-07-01T11:02:11.233Z,31.82
2018-07-01T11:03:11.234Z,31.24
2018-07-01T11:04:11.228Z,32.01
2018-07-01T11:05:11.222Z,31.16
2018-07-01T11:06:11.631Z,30
2018-07-01T11:07:11.219Z,29.52
2018-07-01T11:08:11.216Z,29.91
2018-07-01T11:09:11.213Z,29.62
2018-07-01T11:10:11.210Z,31.06
2018-07-01T11:11:11.211Z,29.72
2018-07-01T11:12:11.219Z,31.93
2018-07-01T11:13:10.950Z,32.31
2018-07-01T11:14:11.211Z,31.16
2018-07-01T11:15:11.200Z,32.31
2018-07-01T11:16:10.942Z,30.19
2018-07-01T11:17:11.196Z,29.52
2018-07-01T11:18:11.192Z,27.98
2018-07-01T11:19:11.189Z,30.47
2018-07-01T11:20:10.944Z,33.16
2018-07-01T11:21:11.187Z,32.21
2018-07-01T11:22:11.188Z,33.66
2018-07-01T11:23:11.179Z,33.18
2018-07-01T11:24:11.176Z,30.29
2018-07-01T11:25:11.178Z,31.16
2018-07-01T11:26:10.917Z,28.08
2018-07-01T11:27:11.611Z,29.22
2018-07-01T11:28:11.170Z,31.24
2018-07-01T11:29:11.168Z,31.15
2018-07-01T11:30:10.910Z,29.9
2018-07-01T11:31:10.904Z,29.99
2018-07-01T11:32:11.163Z,32.1
2018-07-01T11:33:11.164Z,30.08
2018-07-01T11:34:10.897Z,31.24
2018-07-01T11:35:10.989Z,30.85
2018-07-01T11:36:11.153Z,31.05
2018-07-01T11:37:11.146Z,29.99
2018-07-01T11:38:11.223Z,30.85
2018-07-01T11:39:10.884Z,30.85
2018-07-01T11:40:11.142Z,29.61
2018-07-01T11:41:11.142Z,31.34
2018-07-01T11:42:11.136Z,31.82
2018-07-01T11:43:11.131Z,31.82
2018-07-01T11:44:11.129Z,33.36
2018-07-01T11:45:11.127Z,32.39
2018-07-01T11:46:11.129Z,33.26
2018-07-01T11:47:10.866Z,33.16
2018-07-01T11:48:10.870Z,33.74
2018-07-01T11:49:10.862Z,30.47
2018-07-01T11:50:11.117Z,29.7
2018-07-01T11:51:11.114Z,31.24
2018-07-01T11:52:11.144Z,31.13
2018-07-01T11:53:11.107Z,31.82
2018-07-01T11:54:11.104Z,31.72
2018-07-01T11:55:11.107Z,29.49
2018-07-01T11:56:11.100Z,31.23
2018-07-01T11:57:11.099Z,34.11
2018-07-01T11:58:10.874Z,33.62
2018-07-01T11:59:11.101Z,33.91
2018-07-01T12:00:11.092Z,31.23
2018-07-01T12:01:11.090Z,31.05
2018-07-01T12:02:11.087Z,32.18
2018-07-01T12:03:10.826Z,32.57
2018-07-01T12:04:11.082Z,32.67
2018-07-01T12:05:19.545Z,31.23
2018-07-01T12:06:11.078Z,31.32
2018-07-01T12:07:11.075Z,32.28
2018-07-01T12:08:11.072Z,31.13
2018-07-01T12:09:10.813Z,30.55
2018-07-01T12:10:11.067Z,30.26
2018-07-01T12:11:11.064Z,32.28
2018-07-01T12:12:11.070Z,31.03
2018-07-01T12:13:11.062Z,31.7
2018-07-01T12:14:10.800Z,31.61
2018-07-01T12:15:11.057Z,30.36
2018-07-01T12:16:10.793Z,30.07
2018-07-01T12:17:11.050Z,30.74
2018-07-01T12:18:11.044Z,30.93
2018-07-01T12:19:11.049Z,30.63
2018-07-01T12:20:11.041Z,30.84
2018-07-01T12:21:11.038Z,30.92
2018-07-01T12:22:11.036Z,33.62
2018-07-01T12:23:11.089Z,35.34
2018-07-01T12:24:10.779Z,33.15
2018-07-01T12:25:11.026Z,33.24
2018-07-01T12:26:11.026Z,35.26
2018-07-01T12:27:10.770Z,35.55
2018-07-01T12:28:11.024Z,35.26
2018-07-01T12:29:11.021Z,37.57
2018-07-01T12:30:11.017Z,36.51
2018-07-01T12:31:10.755Z,32.28
2018-07-01T12:32:11.010Z,33.24
2018-07-01T12:33:11.007Z,33.24
2018-07-01T12:34:11.004Z,34.39
2018-07-01T12:35:11.008Z,32.67
2018-07-01T12:36:10.998Z,31.41
2018-07-01T12:37:11.008Z,34.97
2018-07-01T12:38:10.994Z,33.62
2018-07-01T12:39:10.994Z,34.11
2018-07-01T12:40:10.993Z,33.82
2018-07-01T12:41:10.985Z,36.99
2018-07-01T12:42:11.423Z,35.45
2018-07-01T12:43:10.726Z,34.11
2018-07-01T12:44:10.988Z,34.2
2018-07-01T12:45:10.981Z,32.95
2018-07-01T12:46:10.977Z,32.09
2018-07-01T12:47:10.971Z,34.39
2018-07-01T12:48:10.971Z,34.11
2018-07-01T12:49:10.969Z,34.97
2018-07-01T12:50:10.964Z,32.86
2018-07-01T12:51:10.961Z,34.49
2018-07-01T12:52:10.959Z,35.06
2018-07-01T12:53:10.964Z,34.97
2018-07-01T12:54:10.952Z,34.01
2018-07-01T12:55:10.950Z,34.97